Allentown, New Jersey
Current Conditions -  °F | °C
As of 5:58 PM on Saturday 22 Nov 2014 (Local Time) from KWRI Reporting Station
Overcast Overcast  
Wind Chill: 36°   Ceiling: 6000
Heat Index: 41°   Visibility: 10mi
Dew Point: 22°   Wind: 9mph
Humidity: 46%   Direction: 220°SW
Pressure: 30.27"   Gusts: NA
Location:  40.18°N, 74.58°W
Report Text: KWRI 222258Z AUTO 22008KT 10SM OVC060 05/M06 A3027 RMK AO2 SLP255 T00521057
Loading
Personal Weather Stations






























Interactive Weather Map New forecast layout! Learn more

10-Day Weather Forecast

Advertisements
Track Severe Weather on mobile